Startpagina
METAR-TAF:

METAR-TAF

Vliegvelden :

Vlissingen, Nederland

breedte: 51-27N, lengte: 3-36E, hoogte: 10 m

Actueel weer

Dit bericht is 13 uur en het 2 minuten geleden gemaakt, om 00:25 UTC
Wind 22 kt uit het zuidwesten
Temperatuur 7°C
Vochtigheid 100%
Druk 1029 hPa
Zicht: 3700 m
nevel

METAR: EHFS 290025Z AUTO 23022KT 3700 BR BKN004/// OVC005/// 07/07 Q1029

Tijdstip: 14:27 (13:27 UTC)


TAF: ontbreekt

Waarnemingen en weersverwachtingen van meer dan 4000 vliegvelden (METAR en TAF).

De beschikbare stations zijn de gele en rode punten op de kaart.

Ga met uw muis naar het station om de naam te zien.

Klik dan om waarnemingen en weersverwachtingen te zien.

kaart wijzigen: klik op de groene knoppen met een zwart kruis om in te zoomen, op de groene knop met een streepje om uit te zoomen of op de groene pijlen voor aangrenzende kaarten.


METAR-TAF: